Airport ID:K65S
Update Time (UTC):17 NOV 19 21:36
Wind Speed (Knots):4
Wind Direction (Magnetic):200
Temperature (°C):7
Dew Point (°C):5
Humidity (%):93
Altimeter (inHg):30.01
Density Altitude (Feet):
Visibility (Miles):10
Clouds (Hundreds of feet):SCT006 OVC020
Present Weather:NO PRECIPITATION
METAR:METAR K65S 172135Z AUTO 00000KT 10SM BKN006 OVC020 07/05 A3001 RMK AO2

The data displayed is for advisory purposes only and is not to be used for flight planning or operations.

This page is not automatically refreshed. Reload the page to see current data.